createdAt,value
2022-11-08T00:02:23.095Z,2.67
2022-11-08T00:04:50.093Z,2.90
2022-11-08T00:07:35.558Z,3.23
2022-11-08T00:10:20.772Z,2.43
2022-11-08T00:13:06.671Z,3.10
2022-11-08T00:15:38.340Z,2.67
2022-11-08T00:18:06.680Z,2.77
2022-11-08T00:20:33.872Z,2.70
2022-11-08T00:23:00.938Z,2.60
2022-11-08T00:25:28.030Z,2.70
2022-11-08T00:27:55.247Z,3.33
2022-11-08T00:30:21.918Z,2.70
2022-11-08T00:32:48.662Z,2.60
2022-11-08T00:35:15.776Z,2.50
2022-11-08T00:37:42.484Z,2.47
2022-11-08T00:40:10.117Z,2.60
2022-11-08T00:42:37.192Z,2.70
2022-11-08T00:45:04.494Z,2.30
2022-11-08T00:47:31.600Z,3.43
2022-11-08T00:49:58.640Z,2.50
2022-11-08T00:52:25.713Z,2.63
2022-11-08T00:54:52.773Z,2.50
2022-11-08T00:57:22.287Z,2.73
2022-11-08T00:59:57.798Z,2.73
2022-11-08T01:02:24.939Z,3.10
2022-11-08T01:04:51.615Z,3.20
2022-11-08T01:07:18.261Z,2.67
2022-11-08T01:09:45.385Z,2.77
2022-11-08T01:12:12.009Z,3.27
2022-11-08T01:14:38.642Z,2.77
2022-11-08T01:17:05.694Z,2.90
2022-11-08T01:19:32.324Z,2.70
2022-11-08T01:21:58.975Z,2.97
2022-11-08T01:24:26.026Z,2.70
2022-11-08T01:26:52.676Z,2.63
2022-11-08T01:29:19.749Z,2.80
2022-11-08T01:31:46.861Z,2.90
2022-11-08T01:34:13.518Z,2.90
2022-11-08T01:36:40.571Z,2.60
2022-11-08T01:39:07.218Z,2.23
2022-11-08T01:41:34.267Z,2.70
2022-11-08T01:44:01.149Z,2.33
2022-11-08T01:46:42.576Z,2.47
2022-11-08T01:49:15.420Z,2.93
2022-11-08T01:51:51.677Z,2.80
2022-11-08T01:54:39.795Z,3.40
2022-11-08T01:57:10.754Z,3.90
2022-11-08T01:59:40.671Z,4.43
2022-11-08T02:02:08.797Z,4.97
2022-11-08T02:04:36.099Z,5.43
2022-11-08T02:07:04.163Z,5.50
2022-11-08T02:09:31.402Z,5.80
2022-11-08T02:11:58.334Z,5.40
2022-11-08T02:14:25.080Z,5.13
2022-11-08T02:16:52.205Z,4.37
2022-11-08T02:19:31.763Z,3.70
2022-11-08T02:22:03.329Z,3.50
2022-11-08T02:24:30.420Z,3.23
2022-11-08T02:26:58.658Z,3.20
2022-11-08T02:29:34.230Z,3.00
2022-11-08T02:32:02.553Z,2.87
2022-11-08T02:34:44.097Z,3.40
2022-11-08T02:37:13.334Z,3.40
2022-11-08T02:39:40.145Z,2.90
2022-11-08T02:42:06.804Z,3.00
2022-11-08T02:44:33.432Z,2.93
2022-11-08T02:47:00.103Z,2.97
2022-11-08T02:49:27.150Z,2.77
2022-11-08T02:51:54.226Z,2.43
2022-11-08T02:54:21.365Z,2.53
2022-11-08T02:56:48.205Z,2.50
2022-11-08T02:59:15.518Z,2.40
2022-11-08T03:01:42.356Z,2.40
2022-11-08T03:04:09.599Z,2.50
2022-11-08T03:06:36.378Z,2.20
2022-11-08T03:09:03.258Z,2.50
2022-11-08T03:11:30.408Z,2.67
2022-11-08T03:13:57.134Z,2.63
2022-11-08T03:16:24.182Z,2.47
2022-11-08T03:18:51.248Z,2.80
2022-11-08T03:21:18.306Z,2.30
2022-11-08T03:23:44.949Z,2.63
2022-11-08T03:26:11.602Z,2.10
2022-11-08T03:28:38.689Z,2.50
2022-11-08T03:31:05.477Z,2.93
2022-11-08T03:33:32.172Z,2.80
2022-11-08T03:35:59.232Z,2.87
2022-11-08T03:38:25.938Z,2.90
2022-11-08T03:40:53.000Z,2.67
2022-11-08T03:43:20.108Z,2.40
2022-11-08T03:45:47.198Z,3.00
2022-11-08T03:48:13.846Z,2.87
2022-11-08T03:50:40.913Z,3.10
2022-11-08T03:53:08.037Z,3.00
2022-11-08T03:55:34.670Z,2.80
2022-11-08T03:58:01.785Z,2.83
2022-11-08T04:00:29.875Z,2.60
2022-11-08T04:03:02.903Z,2.70
2022-11-08T04:05:32.174Z,2.90
2022-11-08T04:08:00.550Z,3.40
2022-11-08T04:10:27.378Z,2.80
2022-11-08T04:13:13.218Z,3.87
2022-11-08T04:15:40.062Z,3.10
2022-11-08T04:18:25.576Z,3.07
2022-11-08T04:21:11.247Z,3.27
2022-11-08T04:23:38.181Z,3.40
2022-11-08T04:26:07.118Z,3.60
2022-11-08T04:28:35.637Z,3.70
2022-11-08T04:31:12.492Z,4.10
2022-11-08T04:33:39.657Z,4.17
2022-11-08T04:36:10.694Z,4.00
2022-11-08T04:38:37.941Z,3.93
2022-11-08T04:41:13.365Z,4.20
2022-11-08T04:43:40.277Z,3.80
2022-11-08T04:46:12.247Z,3.60
2022-11-08T04:48:39.180Z,4.17
2022-11-08T04:51:14.493Z,4.10
2022-11-08T04:53:41.588Z,4.00
2022-11-08T04:56:10.727Z,3.70
2022-11-08T04:58:48.643Z,3.63
2022-11-08T05:01:20.518Z,3.80
2022-11-08T05:03:49.185Z,3.37
2022-11-08T05:06:21.421Z,3.90
2022-11-08T05:08:48.821Z,3.47
2022-11-08T05:11:21.400Z,3.70
2022-11-08T05:13:48.783Z,3.93
2022-11-08T05:16:22.405Z,3.60
2022-11-08T05:18:49.583Z,3.50
2022-11-08T05:21:37.485Z,3.90
2022-11-08T05:24:05.825Z,3.70
2022-11-08T05:26:35.039Z,3.47
2022-11-08T05:29:02.171Z,3.33
2022-11-08T05:31:28.826Z,3.33
2022-11-08T05:33:55.850Z,3.50
2022-11-08T05:36:22.586Z,3.57
2022-11-08T05:38:49.663Z,3.40
2022-11-08T05:41:18.930Z,3.23
2022-11-08T05:43:47.509Z,3.40
2022-11-08T05:46:14.817Z,3.40
2022-11-08T05:48:46.878Z,3.10
2022-11-08T05:51:15.786Z,3.30
2022-11-08T05:53:42.731Z,3.80
2022-11-08T05:56:09.862Z,3.53
2022-11-08T05:58:37.177Z,3.27
2022-11-08T06:01:07.683Z,3.03
2022-11-08T06:03:35.637Z,3.27
2022-11-08T06:06:04.089Z,3.30
2022-11-08T06:08:31.409Z,2.90
2022-11-08T06:11:09.720Z,2.73
2022-11-08T06:13:37.080Z,3.10
2022-11-08T06:16:06.622Z,2.83
2022-11-08T06:18:34.185Z,2.87
2022-11-08T06:21:02.338Z,2.60
2022-11-08T06:23:29.654Z,2.67
2022-11-08T06:25:56.545Z,2.70
2022-11-08T06:28:23.682Z,2.70
2022-11-08T06:30:50.755Z,2.47
2022-11-08T06:33:18.349Z,2.60
2022-11-08T06:35:45.425Z,2.40
2022-11-08T06:38:12.577Z,2.60
2022-11-08T06:40:39.840Z,2.60
2022-11-08T06:43:06.642Z,2.80
2022-11-08T06:45:33.956Z,2.60
2022-11-08T06:48:02.988Z,2.83
2022-11-08T06:50:31.119Z,2.30
2022-11-08T06:52:58.291Z,2.73
2022-11-08T06:55:24.975Z,3.10
2022-11-08T06:57:52.272Z,2.30
2022-11-08T07:00:19.175Z,2.37
2022-11-08T07:02:46.232Z,2.20
2022-11-08T07:05:13.187Z,2.50
2022-11-08T07:07:40.275Z,2.53
2022-11-08T07:10:07.709Z,3.70
2022-11-08T07:12:34.441Z,2.50
2022-11-08T07:15:01.490Z,2.27
2022-11-08T07:17:28.114Z,2.47
2022-11-08T07:19:54.770Z,2.43
2022-11-08T07:22:21.792Z,2.43
2022-11-08T07:24:48.417Z,2.30
2022-11-08T07:27:15.485Z,2.10
2022-11-08T07:29:42.131Z,2.30
2022-11-08T07:32:08.787Z,2.20
2022-11-08T07:34:36.420Z,2.80
2022-11-08T07:37:03.479Z,2.63
2022-11-08T07:39:30.617Z,2.40
2022-11-08T07:41:57.269Z,2.10
2022-11-08T07:44:23.903Z,2.30
2022-11-08T07:46:50.965Z,2.20
2022-11-08T07:49:17.595Z,2.80
2022-11-08T07:51:44.211Z,2.50
2022-11-08T07:54:11.286Z,2.10
2022-11-08T07:56:38.320Z,2.70
2022-11-08T07:59:05.381Z,2.50
2022-11-08T08:01:32.111Z,2.23
2022-11-08T08:03:59.207Z,2.40
2022-11-08T08:06:26.347Z,2.40
2022-11-08T08:08:53.368Z,2.73
2022-11-08T08:11:20.016Z,2.30
2022-11-08T08:13:46.693Z,2.63
2022-11-08T08:16:13.733Z,2.30
2022-11-08T08:18:40.972Z,2.30
2022-11-08T08:21:08.122Z,2.40
2022-11-08T08:23:34.792Z,2.30
2022-11-08T08:26:03.169Z,2.60
2022-11-08T08:28:30.264Z,2.20
2022-11-08T08:30:56.888Z,2.20
2022-11-08T08:33:34.249Z,2.10
2022-11-08T08:36:01.812Z,2.10
2022-11-08T08:38:29.061Z,2.10
2022-11-08T08:40:55.783Z,2.20
2022-11-08T08:43:23.172Z,2.10
2022-11-08T08:45:50.441Z,2.13
2022-11-08T08:48:17.376Z,1.90
2022-11-08T08:50:44.018Z,2.37
2022-11-08T08:53:11.071Z,1.83
2022-11-08T08:55:39.893Z,2.17
2022-11-08T08:58:06.589Z,1.93
2022-11-08T09:03:20.742Z,1.97
2022-11-08T09:05:48.178Z,1.77
2022-11-08T09:08:15.080Z,1.90
2022-11-08T09:10:42.341Z,1.80
2022-11-08T09:13:09.293Z,1.87
2022-11-08T09:15:36.146Z,1.90
2022-11-08T09:18:03.026Z,1.93
2022-11-08T09:20:29.814Z,2.03
2022-11-08T09:23:00.785Z,1.70
2022-11-08T09:25:27.490Z,2.13
2022-11-08T09:27:55.229Z,2.10
2022-11-08T09:30:21.938Z,1.90
2022-11-08T09:33:04.406Z,1.90
2022-11-08T09:35:31.358Z,1.93
2022-11-08T09:37:59.045Z,2.13
2022-11-08T09:40:37.277Z,2.30
2022-11-08T09:43:12.415Z,2.00
2022-11-08T09:45:47.012Z,2.00
2022-11-08T09:48:44.146Z,2.33
2022-11-08T09:51:15.717Z,2.70
2022-11-08T09:53:51.607Z,2.77
2022-11-08T09:56:37.949Z,2.70
2022-11-08T09:59:28.511Z,2.07
2022-11-08T10:01:55.200Z,3.00
2022-11-08T10:04:26.019Z,2.23
2022-11-08T10:07:19.558Z,2.50
2022-11-08T10:10:01.231Z,2.30
2022-11-08T10:12:55.293Z,2.23
2022-11-08T10:15:29.932Z,1.90
2022-11-08T10:18:07.682Z,2.33
2022-11-08T10:21:05.118Z,2.20
2022-11-08T10:23:45.147Z,2.43
2022-11-08T10:26:12.248Z,2.00
2022-11-08T10:28:47.442Z,2.20
2022-11-08T10:31:14.648Z,1.97
2022-11-08T10:33:54.025Z,2.00
2022-11-08T10:36:21.187Z,1.90
2022-11-08T10:38:51.550Z,2.10
2022-11-08T10:41:21.631Z,2.20
2022-11-08T10:44:01.541Z,1.87
2022-11-08T10:46:44.949Z,1.80
2022-11-08T10:49:16.304Z,2.13
2022-11-08T10:51:48.459Z,1.90
2022-11-08T10:54:40.060Z,1.90
2022-11-08T10:57:06.702Z,2.20
2022-11-08T10:59:33.837Z,2.03
2022-11-08T11:02:01.496Z,2.23
2022-11-08T11:04:34.859Z,1.90
2022-11-08T11:07:03.712Z,2.00
2022-11-08T11:09:30.862Z,2.03
2022-11-08T11:12:06.556Z,1.90
2022-11-08T11:14:33.317Z,1.90
2022-11-08T11:17:06.159Z,2.00
2022-11-08T11:19:33.198Z,1.90
2022-11-08T11:22:06.598Z,2.00
2022-11-08T11:24:35.978Z,1.87
2022-11-08T11:27:04.761Z,1.80
2022-11-08T11:29:33.755Z,1.97
2022-11-08T11:32:20.313Z,2.07
2022-11-08T11:34:55.219Z,2.10
2022-11-08T11:37:29.676Z,2.20
2022-11-08T11:40:21.008Z,2.20
2022-11-08T11:42:56.653Z,2.00
2022-11-08T11:45:36.789Z,2.20
2022-11-08T11:48:13.434Z,2.00
2022-11-08T11:50:44.355Z,2.17
2022-11-08T11:53:29.603Z,2.00
2022-11-08T11:56:30.491Z,2.37
2022-11-08T11:59:36.311Z,2.00
2022-11-08T12:02:03.423Z,2.30
2022-11-08T12:04:42.043Z,1.93
2022-11-08T12:07:20.526Z,2.33
2022-11-08T12:10:23.145Z,2.17
2022-11-08T12:13:17.590Z,1.90
2022-11-08T12:16:06.544Z,2.33
2022-11-08T12:18:58.141Z,2.30
2022-11-08T12:21:25.178Z,1.97
2022-11-08T12:24:05.415Z,1.90
2022-11-08T12:26:44.643Z,2.30
2022-11-08T12:29:22.748Z,2.30
2022-11-08T12:32:01.755Z,2.73
2022-11-08T12:35:02.435Z,2.67
2022-11-08T12:37:44.564Z,2.60
2022-11-08T12:40:20.842Z,2.90
2022-11-08T12:42:47.875Z,2.20
2022-11-08T12:45:23.993Z,2.57
2022-11-08T12:48:03.966Z,2.70
2022-11-08T12:50:31.050Z,2.70
2022-11-08T12:53:23.484Z,2.50
2022-11-08T12:55:52.851Z,2.20
2022-11-08T12:58:36.669Z,2.87
2022-11-08T13:01:07.769Z,2.60
2022-11-08T13:03:43.251Z,2.30
2022-11-08T13:06:19.352Z,2.37
2022-11-08T13:08:52.220Z,2.60
2022-11-08T13:11:29.775Z,2.50
2022-11-08T13:13:58.534Z,2.70
2022-11-08T13:16:34.955Z,2.50
2022-11-08T13:19:04.381Z,2.50
2022-11-08T13:21:34.795Z,2.93
2022-11-08T13:24:06.782Z,2.80
2022-11-08T13:26:43.049Z,2.57
2022-11-08T13:29:25.440Z,2.80
2022-11-08T13:32:01.750Z,2.80
2022-11-08T13:34:28.809Z,2.80
2022-11-08T13:37:29.441Z,2.50
2022-11-08T13:40:22.159Z,2.43
2022-11-08T13:42:49.175Z,3.10
2022-11-08T13:45:18.680Z,2.70
2022-11-08T13:47:47.980Z,2.50
2022-11-08T13:50:31.280Z,2.57
2022-11-08T13:53:20.387Z,2.87
2022-11-08T13:55:47.489Z,2.50
2022-11-08T13:58:32.644Z,2.47
2022-11-08T14:01:00.563Z,2.30
2022-11-08T14:03:33.524Z,2.73
2022-11-08T14:06:05.842Z,2.10
2022-11-08T14:08:35.477Z,2.00
2022-11-08T14:11:17.375Z,2.40
2022-11-08T14:14:15.869Z,2.30
2022-11-08T14:16:48.917Z,2.20
2022-11-08T14:19:27.044Z,2.03
2022-11-08T14:21:58.871Z,2.50
2022-11-08T14:24:46.048Z,2.20
2022-11-08T14:27:14.587Z,2.00
2022-11-08T14:29:41.555Z,2.40
2022-11-08T14:32:17.554Z,2.17
2022-11-08T14:34:44.891Z,2.50
2022-11-08T14:37:26.896Z,2.37
2022-11-08T14:39:54.182Z,2.70
2022-11-08T14:42:24.302Z,2.50
2022-11-08T14:44:54.078Z,2.40
2022-11-08T14:47:25.027Z,2.40
2022-11-08T14:49:52.220Z,2.47
2022-11-08T14:52:36.997Z,2.20
2022-11-08T14:55:11.514Z,1.80
2022-11-08T14:57:44.098Z,2.20
2022-11-08T15:00:21.368Z,2.00
2022-11-08T15:02:54.380Z,1.93
2022-11-08T15:05:30.294Z,2.23
2022-11-08T15:07:58.978Z,2.20
2022-11-08T15:10:26.705Z,2.17
2022-11-08T15:12:53.947Z,2.37
2022-11-08T15:15:32.994Z,2.17
2022-11-08T15:18:15.414Z,2.10
2022-11-08T15:21:07.111Z,2.20
2022-11-08T15:23:44.051Z,2.33
2022-11-08T15:26:24.151Z,2.50
2022-11-08T15:29:17.161Z,2.30
2022-11-08T15:32:01.136Z,2.03
2022-11-08T15:34:39.735Z,2.40
2022-11-08T15:37:29.717Z,2.17
2022-11-08T15:39:57.137Z,2.37
2022-11-08T15:42:24.006Z,2.20
2022-11-08T15:45:06.456Z,2.40
2022-11-08T15:47:42.393Z,2.20
2022-11-08T15:50:25.677Z,2.03
2022-11-08T15:52:55.099Z,2.10
2022-11-08T15:55:29.479Z,2.10
2022-11-08T15:57:57.864Z,2.23
2022-11-08T16:00:31.528Z,2.30
2022-11-08T16:02:58.839Z,2.03
2022-11-08T16:05:27.683Z,2.10
2022-11-08T16:07:55.107Z,2.03
2022-11-08T16:10:38.114Z,2.37
2022-11-08T16:13:05.759Z,2.00
2022-11-08T16:15:35.185Z,2.13
2022-11-08T16:18:02.697Z,2.17
2022-11-08T16:20:29.812Z,2.50
2022-11-08T16:22:58.104Z,2.27
2022-11-08T16:25:26.618Z,2.33
2022-11-08T16:28:17.668Z,2.37
2022-11-08T16:30:47.106Z,2.30
2022-11-08T16:33:22.394Z,2.23
2022-11-08T16:35:49.670Z,2.30
2022-11-08T16:38:22.243Z,2.53
2022-11-08T16:40:49.337Z,2.23
2022-11-08T16:43:16.415Z,2.20
2022-11-08T16:46:04.301Z,2.20
2022-11-08T16:48:30.386Z,2.10
2022-11-08T16:51:02.729Z,2.10
2022-11-08T16:53:30.195Z,2.27
2022-11-08T16:55:57.881Z,2.53
2022-11-08T16:58:25.433Z,2.40
2022-11-08T17:00:52.507Z,2.93
2022-11-08T17:03:22.622Z,2.53
2022-11-08T17:05:49.493Z,2.20
2022-11-08T17:08:17.163Z,2.30
2022-11-08T17:10:44.418Z,2.20
2022-11-08T17:13:15.818Z,2.20
2022-11-08T17:15:43.165Z,2.70
2022-11-08T17:18:13.289Z,2.60
2022-11-08T17:20:40.871Z,2.57
2022-11-08T17:23:09.024Z,2.37
2022-11-08T17:25:37.504Z,2.33
2022-11-08T17:28:04.414Z,2.47
2022-11-08T17:30:31.485Z,2.90
2022-11-08T17:32:58.545Z,3.00
2022-11-08T17:35:25.752Z,2.73
2022-11-08T17:37:53.646Z,2.97
2022-11-08T17:40:20.577Z,3.10
2022-11-08T17:42:47.232Z,2.87
2022-11-08T17:45:14.301Z,2.20
2022-11-08T17:47:40.987Z,2.63
2022-11-08T17:50:09.926Z,2.77
2022-11-08T17:52:36.777Z,2.70
2022-11-08T17:55:03.811Z,2.47
2022-11-08T17:57:30.933Z,2.50
2022-11-08T17:59:58.283Z,2.40
2022-11-08T18:02:27.404Z,1.90
2022-11-08T18:04:54.704Z,2.60
2022-11-08T18:07:21.468Z,2.33
2022-11-08T18:09:48.607Z,2.40
2022-11-08T18:12:15.381Z,2.37
2022-11-08T18:14:42.145Z,2.60
2022-11-08T18:17:09.287Z,2.50
2022-11-08T18:19:37.163Z,2.50
2022-11-08T18:22:04.711Z,2.33
2022-11-08T18:24:31.898Z,2.33
2022-11-08T18:26:58.803Z,1.90
2022-11-08T18:29:26.019Z,2.40
2022-11-08T18:31:52.720Z,2.40
2022-11-08T18:34:20.037Z,2.27
2022-11-08T18:36:49.102Z,2.40
2022-11-08T18:39:19.446Z,2.07
2022-11-08T18:41:46.682Z,2.40
2022-11-08T18:44:13.464Z,2.17
2022-11-08T18:46:43.441Z,2.37
2022-11-08T18:49:11.127Z,2.80
2022-11-08T18:51:38.059Z,2.50
2022-11-08T18:54:04.774Z,2.80
2022-11-08T18:56:31.847Z,2.63
2022-11-08T18:58:59.022Z,2.37
2022-11-08T19:01:26.112Z,2.50
2022-11-08T19:03:53.198Z,2.53
2022-11-08T19:06:19.876Z,2.47
2022-11-08T19:08:46.852Z,2.70
2022-11-08T19:11:14.486Z,2.20
2022-11-08T19:13:41.993Z,2.30
2022-11-08T19:16:13.457Z,2.10
2022-11-08T19:18:41.001Z,2.50
2022-11-08T19:21:14.252Z,2.07
2022-11-08T19:23:41.508Z,2.30
2022-11-08T19:26:12.420Z,2.53
2022-11-08T19:28:42.194Z,2.33
2022-11-08T19:31:09.064Z,2.87
2022-11-08T19:33:36.415Z,2.47
2022-11-08T19:36:13.797Z,2.10
2022-11-08T19:38:40.929Z,2.30
2022-11-08T19:41:16.382Z,2.17
2022-11-08T19:43:43.902Z,2.40
2022-11-08T19:46:16.687Z,2.40
2022-11-08T19:48:45.288Z,2.50
2022-11-08T19:51:14.767Z,2.40
2022-11-08T19:53:42.098Z,2.33
2022-11-08T19:56:12.607Z,2.43
2022-11-08T19:58:39.610Z,2.20
2022-11-08T20:01:17.678Z,2.30
2022-11-08T20:03:44.778Z,2.43
2022-11-08T20:06:12.397Z,2.70
2022-11-08T20:08:39.368Z,2.10
2022-11-08T20:11:13.130Z,2.20
2022-11-08T20:13:40.438Z,2.30
2022-11-08T20:16:10.905Z,2.77
2022-11-08T20:18:38.011Z,6.13
2022-11-08T20:21:09.323Z,2.47
2022-11-08T20:23:36.771Z,2.30
2022-11-08T20:26:05.537Z,2.23
2022-11-08T20:28:34.395Z,2.13
2022-11-08T20:31:05.488Z,2.90
2022-11-08T20:33:37.786Z,2.80
2022-11-08T20:36:06.303Z,2.30
2022-11-08T20:38:33.593Z,2.40
2022-11-08T20:41:00.769Z,2.37
2022-11-08T20:43:27.821Z,2.60
2022-11-08T20:46:00.062Z,2.20
2022-11-08T20:48:28.640Z,2.00
2022-11-08T20:50:59.821Z,2.23
2022-11-08T20:53:27.457Z,2.27
2022-11-08T20:56:09.116Z,2.57
2022-11-08T20:58:36.718Z,2.30
2022-11-08T21:01:05.482Z,2.07
2022-11-08T21:03:32.575Z,2.00
2022-11-08T21:06:02.094Z,2.20
2022-11-08T21:08:58.585Z,2.27
2022-11-08T21:11:17.239Z,2.40
2022-11-08T21:13:46.305Z,2.00
2022-11-08T21:16:29.386Z,2.10
2022-11-08T21:18:58.351Z,2.10
2022-11-08T21:21:25.737Z,2.00
2022-11-08T21:23:54.200Z,2.07
2022-11-08T21:26:21.235Z,1.90
2022-11-08T21:28:48.381Z,2.00
2022-11-08T21:31:15.839Z,2.30
2022-11-08T21:33:42.933Z,2.00
2022-11-08T21:36:10.006Z,1.90
2022-11-08T21:38:37.777Z,1.90
2022-11-08T21:41:06.907Z,2.10
2022-11-08T21:43:37.731Z,1.80
2022-11-08T21:46:21.256Z,2.10
2022-11-08T21:48:53.011Z,1.80
2022-11-08T21:51:19.724Z,1.67
2022-11-08T21:53:54.076Z,2.40
2022-11-08T21:56:27.937Z,1.97
2022-11-08T21:58:54.652Z,1.60
2022-11-08T22:01:25.609Z,1.83
2022-11-08T22:03:56.481Z,1.80
2022-11-08T22:06:23.170Z,1.90
2022-11-08T22:08:49.957Z,1.77
2022-11-08T22:11:17.046Z,2.13
2022-11-08T22:13:43.729Z,1.67
2022-11-08T22:16:10.788Z,1.60
2022-11-08T22:21:42.843Z,1.80
2022-11-08T22:24:14.727Z,2.13
2022-11-08T22:26:41.767Z,2.10
2022-11-08T22:29:08.969Z,2.10
2022-11-08T22:31:36.162Z,1.97
2022-11-08T22:34:03.663Z,1.73
2022-11-08T22:36:30.736Z,1.80
2022-11-08T22:38:57.810Z,1.70
2022-11-08T22:41:25.138Z,1.57
2022-11-08T22:43:52.292Z,1.60
2022-11-08T22:46:19.421Z,1.83
2022-11-08T22:48:46.442Z,1.90
2022-11-08T22:51:13.760Z,1.80
2022-11-08T22:53:41.274Z,1.73
2022-11-08T22:56:11.254Z,1.70
2022-11-08T22:58:39.192Z,1.43
2022-11-08T23:01:15.741Z,1.93
2022-11-08T23:03:45.840Z,1.77
2022-11-08T23:06:12.947Z,1.50
2022-11-08T23:08:40.158Z,1.80
2022-11-08T23:11:25.571Z,1.70
2022-11-08T23:14:11.368Z,1.60
2022-11-08T23:16:41.744Z,1.80
2022-11-08T23:19:29.416Z,2.17
2022-11-08T23:22:14.754Z,1.50
2022-11-08T23:24:42.829Z,1.70
2022-11-08T23:27:29.460Z,1.60
2022-11-08T23:30:14.836Z,1.70
2022-11-08T23:32:43.788Z,1.80
2022-11-08T23:35:10.956Z,1.80
2022-11-08T23:37:38.355Z,1.50
2022-11-08T23:40:28.251Z,1.60
2022-11-08T23:43:28.503Z,2.00
2022-11-08T23:45:55.617Z,1.90
2022-11-08T23:48:22.721Z,1.77
2022-11-08T23:50:51.253Z,1.80
2022-11-08T23:53:19.304Z,1.83
2022-11-08T23:55:46.638Z,1.80
2022-11-08T23:58:14.665Z,1.77
